Time;durP1;ratioP1;P1;durP2;ratioP2;P2;SDS_P1;SDS_P2;PMS_P1;PMS_P2;Temp;Humidity;BMP_temperature;BMP_pressure;BME280_temperature;BME280_humidity;BME280_pressure;Samples;Min_cycle;Max_cycle;Signal;HPM_P1;HPM_P2
2022/04/20 05:20:54;;;;;;;;;;;;;;;23.41;57.09;96643.95;623824;227;41456;-70
2022/04/20 05:23:23;;;;;;;;;;;;;;;23.39;57.18;96638.86;623778;227;64533;-70
2022/04/20 05:25:51;;;;;;;;;;;;;;;23.40;57.26;96636.97;623838;227;66441;-70
2022/04/20 05:28:18;;;;;;;;;;;;;;;23.39;57.20;96638.86;623780;227;64473;-70
2022/04/20 05:30:47;;;;;;;;;;;;;;;23.41;57.88;96641.27;623813;227;67453;-70
2022/04/20 05:33:16;;;;;;;;;;;;;;;23.41;58.14;96636.69;623790;227;63019;-70
2022/04/20 05:35:43;;;;;;;;;;;;;;;23.40;57.04;96632.41;623808;227;67606;-70
2022/04/20 05:43:44;;;;;;;;;;;;;;;23.41;57.06;96635.91;623810;227;67148;-68
2022/04/20 05:46:16;;;;;;;;;;;;;;;23.40;56.83;96640.45;620914;227;66107;-67
2022/04/20 05:48:48;;;;;;;;;;;;;;;23.40;57.13;96640.45;623765;226;43357;-70
2022/04/20 05:51:16;;;;;;;;;;;;;;;23.40;58.35;96636.97;623879;227;66750;-68
2022/04/20 05:53:44;;;;;;;;;;;;;;;23.39;57.40;96630.82;623738;227;64311;-68
2022/04/20 05:56:12;;;;;;;;;;;;;;;23.40;58.07;96628.93;620306;224;63218;-68
2022/04/20 05:58:41;;;;;;;;;;;;;;;23.39;57.09;96621.98;620000;229;45061;-68
2022/04/20 06:01:09;;;;;;;;;;;;;;;23.40;58.76;96628.93;619479;229;66735;-68
2022/04/20 06:03:50;;;;;;;;;;;;;;;23.39;57.91;96622.78;620352;227;45500;-71
2022/04/20 06:06:29;;;;;;;;;;;;;;;23.37;58.14;96624.95;611273;232;48292;-70
2022/04/20 06:08:58;;;;;;;;;;;;;;;23.37;58.22;96624.95;623684;227;67629;-73
2022/04/20 06:11:30;;;;;;;;;;;;;;;23.36;58.01;96630.63;623063;226;44296;-73
2022/04/20 06:13:58;;;;;;;;;;;;;;;23.37;56.77;96630.31;623671;227;66914;-73
2022/04/20 06:16:46;;;;;;;;;;;;;;;23.37;56.95;96619.59;622367;227;48890;-74
2022/04/20 06:19:15;;;;;;;;;;;;;;;23.37;56.95;96624.95;624665;226;42455;-66
2022/04/20 06:22:01;;;;;;;;;;;;;;;23.38;57.08;96625.74;619964;229;42984;-65
2022/04/20 06:24:46;;;;;;;;;;;;;;;23.39;56.91;96617.41;619865;229;41952;-69
2022/04/20 06:27:32;;;;;;;;;;;;;;;23.40;57.33;96620.88;619917;229;37540;-70
2022/04/20 06:30:05;;;;;;;;;;;;;;;23.39;56.79;96620.09;619375;227;46766;-71
2022/04/20 06:32:37;;;;;;;;;;;;;;;23.40;57.42;96613.62;619324;228;46578;-70
2022/04/20 06:35:13;;;;;;;;;;;;;;;23.41;57.16;96609.87;606611;229;46445;-73
2022/04/20 06:37:42;;;;;;;;;;;;;;;23.41;57.13;96604.52;611810;229;49307;-71
2022/04/20 06:40:17;;;;;;;;;;;;;;;23.42;56.88;96603.41;619441;228;45572;-69
2022/04/20 06:42:52;;;;;;;;;;;;;;;23.42;57.26;96599.94;619621;227;43331;-69
2022/04/20 06:45:28;;;;;;;;;;;;;;;23.44;57.53;96603.13;619921;229;50069;-69
2022/04/20 06:48:13;;;;;;;;;;;;;;;23.47;57.53;96608.69;593100;238;49117;-70
2022/04/20 06:50:54;;;;;;;;;;;;;;;23.48;58.25;96604.11;613507;229;48036;-69
2022/04/20 06:58:31;;;;;;;;;;;;;;;23.52;58.17;96609.67;619782;229;64702;-69
2022/04/20 06:58:57;;;;;;;;;;;;;;;23.53;58.31;96612.06;619435;227;62987;-70
2022/04/20 07:01:26;;;;;;;;;;;;;;;23.54;58.24;96613.64;619437;227;46829;-70
2022/04/20 07:04:05;;;;;;;;;;;;;;;23.56;58.52;96610.68;618155;227;44846;-69
2022/04/20 07:06:33;;;;;;;;;;;;;;;23.59;57.79;96610.08;620736;227;47931;-70
2022/04/20 07:09:08;;;;;;;;;;;;;;;23.61;58.64;96608.69;618501;227;46740;-70
2022/04/20 07:11:43;;;;;;;;;;;;;;;23.63;59.01;96601.15;615893;230;47984;-70
2022/04/20 07:14:11;;;;;;;;;;;;;;;23.65;58.98;96607.02;616058;229;65100;-68
2022/04/20 07:16:38;;;;;;;;;;;;;;;23.68;58.94;96609.10;616110;230;67060;-72
2022/04/20 07:19:07;;;;;;;;;;;;;;;23.69;57.89;96597.27;616355;230;44082;-69
2022/04/20 07:21:40;;;;;;;;;;;;;;;23.71;58.77;96594.33;616053;226;47403;-69
2022/04/20 07:24:15;;;;;;;;;;;;;;;23.74;58.28;96592.94;614542;230;48304;-69
2022/04/20 07:26:47;;;;;;;;;;;;;;;23.76;58.26;96593.41;615646;230;44246;-69
2022/04/20 07:29:26;;;;;;;;;;;;;;;23.76;57.66;96583.47;615959;229;43994;-73
2022/04/20 07:32:01;;;;;;;;;;;;;;;23.77;56.28;96582.40;614420;230;48301;-69
2022/04/20 07:34:47;;;;;;;;;;;;;;;23.79;57.75;96577.53;616151;230;42512;-69
2022/04/20 07:37:35;;;;;;;;;;;;;;;23.79;57.54;96571.34;608125;232;47812;-68
2022/04/20 07:40:10;;;;;;;;;;;;;;;23.79;57.87;96566.80;608075;233;50406;-67
2022/04/20 07:42:39;;;;;;;;;;;;;;;23.80;58.19;96567.59;610876;230;46619;-69
2022/04/20 07:45:12;;;;;;;;;;;;;;;23.81;57.94;96569.16;613881;230;47490;-69
2022/04/20 07:47:58;;;;;;;;;;;;;;;23.82;57.01;96565.41;616068;230;43089;-68
2022/04/20 07:50:38;;;;;;;;;;;;;;;23.84;58.06;96577.41;608104;233;49792;-71
2022/04/20 07:53:11;;;;;;;;;;;;;;;23.86;57.33;96582.48;615641;229;49079;-69
2022/04/20 07:55:58;;;;;;;;;;;;;;;23.87;57.84;96578.69;615141;230;47907;-68
2022/04/20 07:58:28;;;;;;;;;;;;;;;23.88;56.92;96581.09;615177;230;49140;-69
2022/04/20 08:01:00;;;;;;;;;;;;;;;23.89;57.43;96582.67;615717;230;43843;-68
2022/04/20 08:03:33;;;;;;;;;;;;;;;23.91;57.63;96591.22;615954;230;50225;-70
2022/04/20 08:06:00;;;;;;;;;;;;;;;;;;615983;230;64317;-69
2022/04/20 08:08:28;;;;;;;;;;;;;;;23.93;56.26;96583.67;606964;233;65873;-71
2022/04/20 08:10:57;;;;;;;;;;;;;;;23.96;56.93;96573.44;605690;232;44610;-71
2022/04/20 08:16:12;;;;;;;;;;;;;;;23.97;57.34;96575.80;605482;234;42416;-70
2022/04/20 08:18:41;;;;;;;;;;;;;;;23.99;56.95;96581.67;605099;233;43844;-71
2022/04/20 08:21:23;;;;;;;;;;;;;;;24.01;57.43;96589.41;602984;232;46803;-71
2022/04/20 08:23:50;;;;;;;;;;;;;;;24.01;57.25;96578.67;608297;232;63001;-69
2022/04/20 08:26:17;;;;;;;;;;;;;;;24.01;57.56;96587.55;608222;233;64926;-71
2022/04/20 08:28:46;;;;;;;;;;;;;;;24.02;56.59;96586.44;608237;233;64807;-69
2022/04/20 08:31:16;;;;;;;;;;;;;;;24.03;57.54;96588.02;608179;233;65201;-69
2022/04/20 08:33:44;;;;;;;;;;;;;;;24.04;57.32;96586.94;608210;233;67137;-68
2022/04/20 08:36:15;;;;;;;;;;;;;;;24.05;57.46;96571.63;608198;233;67015;-69
2022/04/20 08:38:44;;;;;;;;;;;;;;;24.05;58.20;96575.09;608215;233;65442;-72
2022/04/20 08:41:12;;;;;;;;;;;;;;;24.04;57.79;96578.89;608201;233;67371;-69
2022/04/20 08:43:43;;;;;;;;;;;;;;;24.04;57.95;96567.36;608231;233;66883;-70
2022/04/20 08:46:10;;;;;;;;;;;;;;;24.04;58.49;96568.15;608230;233;65334;-70
2022/04/20 08:48:38;;;;;;;;;;;;;;;24.05;56.84;96571.63;608251;233;67076;-70
2022/04/20 08:51:07;;;;;;;;;;;;;;;24.06;57.38;96571.34;608114;233;66731;-65
2022/04/20 08:53:35;;;;;;;;;;;;;;;24.06;57.23;96568.66;608221;233;63142;-69
2022/04/20 08:58:49;;;;;;;;;;;;;;;24.05;57.08;96579.67;608182;233;67292;-69
2022/04/20 09:01:18;;;;;;;;;;;;;;;24.05;57.51;96575.09;608162;233;63083;-69
2022/04/20 09:03:53;;;;;;;;;;;;;;;24.06;56.91;96581.25;608220;233;67153;-69
2022/04/20 09:06:16;;;;;;;;;;;;;;;24.05;56.61;96580.47;607923;233;64912;-69
2022/04/20 09:08:45;;;;;;;;;;;;;;;24.05;56.76;96567.05;608187;233;66117;-69
2022/04/20 09:11:13;;;;;;;;;;;;;;;24.05;56.63;96569.73;608183;233;65061;-68
2022/04/20 09:13:45;;;;;;;;;;;;;;;24.05;56.84;96569.73;608189;233;64936;-68
2022/04/20 09:16:13;;;;;;;;;;;;;;;24.05;56.66;96575.09;608162;233;65341;-70
2022/04/20 09:18:47;;;;;;;;;;;;;;;24.06;56.36;96570.52;608138;233;66965;-70
2022/04/20 09:21:12;;;;;;;;;;;;;;;24.06;56.27;96587.44;607983;233;64884;-71
2022/04/20 09:23:41;;;;;;;;;;;;;;;24.06;56.91;96584.76;608118;233;66487;-71
2022/04/20 09:26:12;;;;;;;;;;;;;;;24.06;56.18;96581.25;608171;233;65443;-70
2022/04/20 09:28:42;;;;;;;;;;;;;;;24.06;56.09;96576.70;608177;233;66863;-70
2022/04/20 09:31:11;;;;;;;;;;;;;;;24.06;55.98;96578.57;608162;233;65722;-71
2022/04/20 09:33:46;;;;;;;;;;;;;;;24.07;56.63;96582.86;608112;233;64845;-71
2022/04/20 09:36:14;;;;;;;;;;;;;;;24.07;56.50;96588.23;608095;233;66862;-71
2022/04/20 09:38:43;;;;;;;;;;;;;;;24.07;56.49;96583.66;608251;233;62972;-75
2022/04/20 09:41:12;;;;;;;;;;;;;;;24.07;56.29;96586.34;607336;233;45997;-69
2022/04/20 09:43:39;;;;;;;;;;;;;;;24.07;56.56;96583.66;608217;233;67001;-69
2022/04/20 09:49:07;;;;;;;;;;;;;;;24.07;56.30;96572.91;608066;233;64903;-69
2022/04/20 09:51:42;;;;;;;;;;;;;;;24.07;55.85;96567.55;609344;230;67074;-68
2022/04/20 09:54:27;;;;;;;;;;;;;;;24.08;56.09;96565.65;607700;233;65619;-69
2022/04/20 09:56:59;;;;;;;;;;;;;;;24.07;55.90;96559.49;607477;233;67437;-69
2022/04/20 09:59:26;;;;;;;;;;;;;;;24.07;56.01;96562.17;601457;233;70014;-69
2022/04/20 10:01:54;;;;;;;;;;;;;;;24.08;55.84;96555.70;608066;233;65295;-69
2022/04/20 10:04:23;;;;;;;;;;;;;;;24.08;55.16;96552.23;608115;233;67098;-68
2022/04/20 10:06:50;;;;;;;;;;;;;;;24.09;54.51;96553.80;608281;233;66491;-69
2022/04/20 10:09:20;;;;;;;;;;;;;;;24.10;55.08;96556.20;607996;233;65121;-68
2022/04/20 10:11:47;;;;;;;;;;;;;;;24.11;55.36;96565.83;608283;233;64784;-70
2022/04/20 10:17:00;;;;;;;;;;;;;;;24.12;52.70;96562.07;608063;233;63124;-66
2022/04/20 10:19:29;;;;;;;;;;;;;;;24.11;55.15;96552.41;608183;233;65555;-72
2022/04/20 10:21:58;;;;;;;;;;;;;;;24.12;50.99;96537.12;607952;233;66860;-70
2022/04/20 10:24:30;;;;;;;;;;;;;;;24.14;52.88;96546.46;607624;233;66320;-69
2022/04/20 10:26:59;;;;;;;;;;;;;;;24.17;53.49;96530.82;608214;233;64658;-69
2022/04/20 10:29:27;;;;;;;;;;;;;;;24.19;53.25;96528.64;607984;233;64813;-70
2022/04/20 10:31:56;;;;;;;;;;;;;;;24.20;54.25;96528.34;608129;233;65248;-71
2022/04/20 10:34:25;;;;;;;;;;;;;;;24.21;53.83;96524.55;608129;233;66754;-71
2022/04/20 10:37:07;;;;;;;;;;;;;;;24.21;53.91;96529.92;607953;233;45621;-69
2022/04/20 10:39:37;;;;;;;;;;;;;;;24.23;54.24;96522.37;607994;233;47143;-69
2022/04/20 10:42:16;;;;;;;;;;;;;;;24.23;55.49;96519.68;608191;233;48679;-72
2022/04/20 10:45:04;;;;;;;;;;;;;;;24.24;55.19;96507.05;608185;233;66898;-71
2022/04/20 10:47:33;;;;;;;;;;;;;;;24.25;54.22;96516.67;608193;233;65068;-70
2022/04/20 10:50:21;;;;;;;;;;;;;;;24.26;55.50;96524.44;608181;233;67414;-70
2022/04/20 10:52:52;;;;;;;;;;;;;;;24.28;54.40;96526.80;607862;233;66911;-70
2022/04/20 10:55:27;;;;;;;;;;;;;;;24.28;54.97;96524.13;608250;233;65977;-70
2022/04/20 10:57:56;;;;;;;;;;;;;;;24.28;55.45;96522.25;605840;233;64938;-71
2022/04/20 11:00:26;;;;;;;;;;;;;;;24.29;55.56;96531.09;608212;233;66956;-73
2022/04/20 11:02:55;;;;;;;;;;;;;;;24.30;55.07;96520.03;608226;233;63065;-73
2022/04/20 11:05:24;;;;;;;;;;;;;;;24.33;54.33;96518.63;607767;233;64669;-70
2022/04/20 11:08:02;;;;;;;;;;;;;;;24.34;55.34;96517.55;608219;233;67004;-73
2022/04/20 11:10:30;;;;;;;;;;;;;;;24.35;54.69;96519.92;608253;233;62912;-76
2022/04/20 11:18:53;;;;;;;;;;;;;;;24.35;53.67;96500.33;608074;233;43476;-71
2022/04/20 11:21:23;;;;;;;;;;;;;;;24.33;53.24;96505.20;606484;233;50716;-69
2022/04/20 11:23:57;;;;;;;;;;;;;;;24.36;55.22;96497.35;608306;233;66643;-69
2022/04/20 11:26:26;;;;;;;;;;;;;;;24.39;55.61;96495.95;608182;233;65954;-71
2022/04/20 11:28:55;;;;;;;;;;;;;;;24.42;54.38;96497.20;608212;233;67050;-71
2022/04/20 11:31:24;;;;;;;;;;;;;;;24.40;54.63;96494.84;608223;233;65153;-73
2022/04/20 11:33:52;;;;;;;;;;;;;;;24.43;56.30;96483.48;608221;233;63163;-73
2022/04/20 11:36:20;;;;;;;;;;;;;;;24.43;54.39;96488.86;608234;233;67253;-73
2022/04/20 11:38:50;;;;;;;;;;;;;;;24.45;56.09;96489.38;608251;233;46809;-75
2022/04/20 11:41:19;;;;;;;;;;;;;;;24.46;55.79;96498.23;608191;233;65354;-77
2022/04/20 11:43:49;;;;;;;;;;;;;;;24.45;52.96;96491.28;608254;233;65072;-75
2022/04/20 11:46:17;;;;;;;;;;;;;;;24.47;55.33;96502.48;608208;233;67432;-75
2022/04/20 11:48:53;;;;;;;;;;;;;;;24.42;52.76;96503.40;608228;233;65604;-72
2022/04/20 11:51:25;;;;;;;;;;;;;;;24.47;54.54;96497.94;608189;233;64652;-70
2022/04/20 11:53:53;;;;;;;;;;;;;;;24.49;55.61;96495.72;608245;233;64831;-68
2022/04/20 11:56:35;;;;;;;;;;;;;;;24.51;55.18;96490.05;607857;233;47003;-69
2022/04/20 11:59:04;;;;;;;;;;;;;;;24.53;54.45;96494.02;608217;233;67320;-71
2022/04/20 12:01:33;;;;;;;;;;;;;;;24.56;54.88;96498.77;608163;233;66805;-70
2022/04/20 12:04:04;;;;;;;;;;;;;;;24.57;55.32;96497.66;608140;233;63015;-70
2022/04/20 12:06:31;;;;;;;;;;;;;;;24.58;56.33;96488.52;608155;233;64851;-70
2022/04/20 12:08:59;;;;;;;;;;;;;;;24.61;55.43;96488.98;608224;233;64831;-71
2022/04/20 12:11:26;;;;;;;;;;;;;;;24.63;55.98;96489.48;608205;233;63026;-71
2022/04/20 12:13:58;;;;;;;;;;;;;;;24.63;55.02;96486.80;608249;233;67097;-69
2022/04/20 12:16:25;;;;;;;;;;;;;;;24.64;56.00;96483.81;608212;233;67140;-71
2022/04/20 12:18:53;;;;;;;;;;;;;;;24.66;56.12;96486.97;608174;233;65356;-71
2022/04/20 12:21:43;;;;;;;;;;;;;;;24.67;56.09;96487.78;608160;233;67037;-70
2022/04/20 12:24:24;;;;;;;;;;;;;;;24.68;56.17;96483.98;608178;233;67215;-70
2022/04/20 12:26:52;;;;;;;;;;;;;;;24.69;56.17;96477.50;608189;233;63184;-69
2022/04/20 12:29:21;;;;;;;;;;;;;;;24.69;56.18;96478.31;608165;233;65110;-69
2022/04/20 12:31:50;;;;;;;;;;;;;;;24.59;54.15;96476.67;608157;233;67072;-67
2022/04/20 12:34:19;;;;;;;;;;;;;;;24.61;55.78;96470.18;608237;233;63295;-68
2022/04/20 12:36:53;;;;;;;;;;;;;;;24.65;55.91;96473.86;602784;233;65824;-68
2022/04/20 12:39:28;;;;;;;;;;;;;;;24.66;56.30;96475.43;608131;233;66814;-65
2022/04/20 12:41:56;;;;;;;;;;;;;;;24.67;56.21;96471.66;608252;233;66252;-68
2022/04/20 12:44:38;;;;;;;;;;;;;;;24.68;56.06;96470.55;608180;233;67367;-69
2022/04/20 12:47:18;;;;;;;;;;;;;;;24.69;56.39;96467.56;609828;230;67798;-70
2022/04/20 12:49:44;;;;;;;;;;;;;;;24.69;56.51;96470.25;612321;230;65165;-70
2022/04/20 12:52:15;;;;;;;;;;;;;;;24.71;56.75;96461.88;609194;230;67261;-69
2022/04/20 12:54:44;;;;;;;;;;;;;;;24.71;56.82;96465.34;610443;230;64706;-69
2022/04/20 13:02:59;;;;;;;;;;;;;;;24.73;56.84;96449.72;617221;230;67243;-67
2022/04/20 13:05:27;;;;;;;;;;;;;;;24.73;56.63;96449.72;617154;230;65510;-68
2022/04/20 13:07:54;;;;;;;;;;;;;;;24.74;57.07;96445.12;617073;230;67015;-67
2022/04/20 13:10:25;;;;;;;;;;;;;;;24.74;56.70;96439.75;617141;230;66931;-69
2022/04/20 13:12:53;;;;;;;;;;;;;;;24.75;57.07;96435.98;617109;230;65201;-69
2022/04/20 13:15:23;;;;;;;;;;;;;;;24.76;57.15;96432.18;617073;230;44317;-67
2022/04/20 13:17:52;;;;;;;;;;;;;;;24.75;57.08;96438.67;617138;230;67116;-67
2022/04/20 13:20:21;;;;;;;;;;;;;;;24.74;56.39;96435.16;617081;230;65342;-69
2022/04/20 13:22:48;;;;;;;;;;;;;;;24.75;56.91;96430.61;617093;229;67135;-69
2022/04/20 13:28:01;;;;;;;;;;;;;;;24.76;56.61;96437.55;617754;229;63070;-69
2022/04/20 13:30:37;;;;;;;;;;;;;;;24.75;57.38;96444.83;617826;229;67040;-69
2022/04/20 13:33:05;;;;;;;;;;;;;;;24.75;56.89;96439.45;617777;229;67028;-68
2022/04/20 13:35:33;;;;;;;;;;;;;;;24.76;56.67;96451.78;617684;229;65398;-69
2022/04/20 13:38:01;;;;;;;;;;;;;;;24.76;56.76;96451.78;617718;229;67112;-68
2022/04/20 13:40:28;;;;;;;;;;;;;;;24.76;57.01;96459.05;615597;229;67031;-70
2022/04/20 13:42:56;;;;;;;;;;;;;;;24.76;56.12;96451.78;614157;229;63062;-68
2022/04/20 13:45:24;;;;;;;;;;;;;;;24.77;56.77;96455.25;610835;232;67008;-67
2022/04/20 13:47:51;;;;;;;;;;;;;;;24.77;56.72;96464.13;610801;232;65333;-66
2022/04/20 13:50:20;;;;;;;;;;;;;;;24.78;56.71;96464.92;610735;232;63358;-68
2022/04/20 13:52:49;;;;;;;;;;;;;;;24.79;56.64;96463.80;610790;232;65059;-68
2022/04/20 13:55:17;;;;;;;;;;;;;;;24.78;57.16;96472.98;612534;229;66955;-69
2022/04/20 13:57:44;;;;;;;;;;;;;;;24.78;57.18;96467.61;615026;229;65218;-70
2022/04/20 14:00:12;;;;;;;;;;;;;;;24.80;56.62;96484.22;614391;229;67101;-70
2022/04/20 14:02:42;;;;;;;;;;;;;;;24.79;57.02;96483.41;617726;229;67253;-69
2022/04/20 14:05:10;;;;;;;;;;;;;;;24.80;57.35;96493.07;615596;229;65583;-70
2022/04/20 14:07:40;;;;;;;;;;;;;;;24.81;57.41;96497.34;610827;232;67103;-71
2022/04/20 14:10:08;;;;;;;;;;;;;;;24.80;57.21;96505.72;610869;232;67082;-72
2022/04/20 14:12:37;;;;;;;;;;;;;;;24.83;56.76;96517.72;610793;232;65387;-69
2022/04/20 14:15:05;;;;;;;;;;;;;;;24.81;57.40;96521.52;610815;232;67274;-71
2022/04/20 14:17:32;;;;;;;;;;;;;;;24.83;57.35;96531.16;610857;232;66766;-70
2022/04/20 14:20:00;;;;;;;;;;;;;;;24.84;56.50;96535.45;610851;232;65347;-70
2022/04/20 14:22:27;;;;;;;;;;;;;;;24.85;56.95;96534.34;610268;232;66611;-68
2022/04/20 14:32:09;;;;;;;;;;;;;;;24.84;56.44;96543.52;608287;233;66653;-69
2022/04/20 14:32:55;;;;;;;;;;;;;;;24.86;57.01;96539.42;608239;233;67005;-69
2022/04/20 14:35:23;;;;;;;;;;;;;;;24.86;56.21;96523.30;608211;233;65424;-70
2022/04/20 14:37:51;;;;;;;;;;;;;;;24.87;56.98;96529.46;608263;233;66712;-69
2022/04/20 14:40:18;;;;;;;;;;;;;;;24.87;57.46;96541.00;608137;233;66640;-67
2022/04/20 14:42:46;;;;;;;;;;;;;;;24.89;56.30;96560.31;608230;233;65226;-67
2022/04/20 14:45:13;;;;;;;;;;;;;;;24.86;57.18;96562.83;608229;233;67312;-70
2022/04/20 14:47:41;;;;;;;;;;;;;;;24.84;56.35;96575.77;608081;233;64721;-70
2022/04/20 14:50:08;;;;;;;;;;;;;;;24.88;54.91;96566.80;608302;233;63013;-71
2022/04/20 14:52:36;;;;;;;;;;;;;;;24.90;54.37;96566.47;608068;233;67097;-69
2022/04/20 14:55:04;;;;;;;;;;;;;;;24.92;55.36;96565.06;607760;233;67052;-69
2022/04/20 14:57:31;;;;;;;;;;;;;;;24.93;55.63;96576.61;608296;233;65103;-69
2022/04/20 14:59:59;;;;;;;;;;;;;;;24.96;55.36;96584.05;608191;233;67116;-68
2022/04/20 15:02:26;;;;;;;;;;;;;;;24.97;55.66;96580.28;608288;233;67015;-68
2022/04/20 15:04:54;;;;;;;;;;;;;;;24.98;55.94;96584.55;608314;233;65382;-71
2022/04/20 15:07:21;;;;;;;;;;;;;;;24.97;56.27;96583.76;608282;233;67931;-71
2022/04/20 15:09:49;;;;;;;;;;;;;;;24.99;56.15;96591.50;608329;233;66641;-71
2022/04/20 15:12:16;;;;;;;;;;;;;;;25.00;55.56;96610.02;608297;233;65148;-71
2022/04/20 15:14:47;;;;;;;;;;;;;;;25.00;57.34;96626.16;608257;233;64805;-71
2022/04/20 15:17:15;;;;;;;;;;;;;;;25.00;55.89;96639.59;608275;233;65323;-71
2022/04/20 15:19:43;;;;;;;;;;;;;;;25.02;55.72;96644.68;608316;233;65347;-71
2022/04/20 15:22:11;;;;;;;;;;;;;;;25.04;55.97;96645.14;607903;233;67034;-71
2022/04/20 15:24:38;;;;;;;;;;;;;;;25.03;56.82;96636.29;605614;234;64895;-71
2022/04/20 15:27:06;;;;;;;;;;;;;;;25.06;55.29;96644.85;605596;234;63117;-71
2022/04/20 15:29:33;;;;;;;;;;;;;;;25.07;55.07;96655.28;605517;234;68300;-71
2022/04/20 15:32:01;;;;;;;;;;;;;;;25.08;54.12;96666.86;605595;234;66879;-71
2022/04/20 15:34:28;;;;;;;;;;;;;;;25.09;55.09;96677.28;605590;234;63074;-72
2022/04/20 15:36:57;;;;;;;;;;;;;;;25.10;54.94;96689.66;605579;234;64534;-72
2022/04/20 15:39:24;;;;;;;;;;;;;;;25.12;54.58;96675.88;605584;234;67049;-71
2022/04/20 15:41:52;;;;;;;;;;;;;;;25.13;53.72;96672.11;605562;234;65371;-71
2022/04/20 15:44:20;;;;;;;;;;;;;;;25.12;53.69;96649.78;605658;234;65958;-71
2022/04/20 15:46:48;;;;;;;;;;;;;;;25.14;53.76;96646.80;605559;234;66826;-71
2022/04/20 15:49:15;;;;;;;;;;;;;;;25.15;53.74;96648.41;605608;234;62999;-71
2022/04/20 15:51:43;;;;;;;;;;;;;;;25.15;54.09;96659.95;605588;234;67933;-71
2022/04/20 15:54:10;;;;;;;;;;;;;;;25.15;53.97;96661.85;605593;234;66990;-72
2022/04/20 16:01:58;;;;;;;;;;;;;;;25.17;53.54;96646.22;601702;234;66908;-72
2022/04/20 16:04:32;;;;;;;;;;;;;;;25.16;53.62;96633.88;605543;233;65565;-72
2022/04/20 16:06:56;;;;;;;;;;;;;;;25.15;54.56;96638.44;605321;234;67221;-72
2022/04/20 16:09:24;;;;;;;;;;;;;;;25.16;53.86;96623.13;605598;234;64810;-72
2022/04/20 16:11:54;;;;;;;;;;;;;;;25.16;54.54;96631.19;605565;234;63030;-72
2022/04/20 16:14:21;;;;;;;;;;;;;;;25.16;53.84;96626.61;605500;234;64069;-72
2022/04/20 16:16:48;;;;;;;;;;;;;;;25.17;54.35;96616.64;605537;234;66698;-72
2022/04/20 16:19:16;;;;;;;;;;;;;;;25.16;54.34;96625.81;605610;234;62970;-71
2022/04/20 16:21:44;;;;;;;;;;;;;;;25.16;54.29;96631.19;605517;234;67120;-72
2022/04/20 16:24:11;;;;;;;;;;;;;;;25.16;53.99;96640.05;605567;234;66523;-72
2022/04/20 16:26:39;;;;;;;;;;;;;;;25.16;53.78;96629.30;605468;234;65037;-72
2022/04/20 16:29:06;;;;;;;;;;;;;;;25.16;53.79;96617.75;605374;234;66888;-72
2022/04/20 16:31:34;;;;;;;;;;;;;;;25.17;54.24;96603.19;605541;234;67448;-72
2022/04/20 16:34:01;;;;;;;;;;;;;;;25.15;54.39;96616.93;605492;234;62830;-72
2022/04/20 16:36:29;;;;;;;;;;;;;;;25.15;54.41;96643.82;605600;234;64886;-72
2022/04/20 16:38:57;;;;;;;;;;;;;;;25.16;54.55;96656.19;605610;234;66795;-72
2022/04/20 16:41:25;;;;;;;;;;;;;;;25.15;54.94;96668.02;605561;234;65615;-72
2022/04/20 16:43:52;;;;;;;;;;;;;;;25.15;54.82;96683.37;605461;234;64874;-72
2022/04/20 16:46:20;;;;;;;;;;;;;;;25.16;54.69;96687.66;605588;234;64768;-72
2022/04/20 16:48:48;;;;;;;;;;;;;;;25.16;54.62;96690.35;605518;233;65885;-72
2022/04/20 16:51:16;;;;;;;;;;;;;;;25.17;53.99;96689.24;605154;234;66829;-72
2022/04/20 16:53:44;;;;;;;;;;;;;;;25.16;54.26;96687.66;604474;234;66947;-72
2022/04/20 16:56:12;;;;;;;;;;;;;;;25.16;54.79;96683.07;605552;234;63083;-72
2022/04/20 16:58:39;;;;;;;;;;;;;;;25.17;53.77;96656.97;605572;234;67463;-72
2022/04/20 17:01:07;;;;;;;;;;;;;;;25.18;53.82;96655.86;605585;234;64494;-72
2022/04/20 17:03:34;;;;;;;;;;;;;;;25.18;53.54;96663.92;605632;234;63002;-72
2022/04/20 17:06:02;;;;;;;;;;;;;;;25.20;53.97;96672.48;605572;234;67083;-72
2022/04/20 17:08:31;;;;;;;;;;;;;;;25.20;53.72;96677.87;605576;234;64764;-72
2022/04/20 17:10:59;;;;;;;;;;;;;;;25.21;53.47;96687.55;605605;234;63077;-72
2022/04/20 17:13:27;;;;;;;;;;;;;;;25.22;53.88;96686.43;605604;234;64954;-72
2022/04/20 17:15:55;;;;;;;;;;;;;;;25.23;54.02;96688.80;605615;234;66873;-72
2022/04/20 17:18:23;;;;;;;;;;;;;;;25.25;52.47;96696.58;605584;234;63039;-72
2022/04/20 17:26:41;;;;;;;;;;;;;;;25.29;53.91;96697.56;605575;234;65434;-71
2022/04/20 17:29:09;;;;;;;;;;;;;;;25.29;53.61;96692.19;605444;234;67088;-71
2022/04/20 17:31:39;;;;;;;;;;;;;;;25.30;53.12;96704.52;605654;234;64847;-70
2022/04/20 17:34:07;;;;;;;;;;;;;;;25.32;52.74;96706.89;605495;234;63003;-70
2022/04/20 17:36:39;;;;;;;;;;;;;;;25.33;53.45;96711.19;605470;234;64912;-70
2022/04/20 17:39:08;;;;;;;;;;;;;;;25.33;53.49;96717.35;605532;234;66776;-71
2022/04/20 17:41:36;;;;;;;;;;;;;;;25.35;53.05;96717.84;605261;234;65386;-70
2022/04/20 17:44:05;;;;;;;;;;;;;;;25.36;52.48;96719.42;605609;233;67186;-70
2022/04/20 17:46:32;;;;;;;;;;;;;;;25.38;52.92;96736.06;605566;234;67217;-70
2022/04/20 17:49:00;;;;;;;;;;;;;;;25.39;53.03;96734.16;605590;234;65131;-70
2022/04/20 17:51:29;;;;;;;;;;;;;;;25.40;53.00;96733.05;605586;234;64935;-70
2022/04/20 17:53:57;;;;;;;;;;;;;;;25.41;53.13;96748.11;605555;234;66909;-70
2022/04/20 17:56:26;;;;;;;;;;;;;;;25.43;53.04;96745.91;605573;234;62956;-70
2022/04/20 17:58:53;;;;;;;;;;;;;;;25.43;52.28;96752.09;605610;234;64712;-70
2022/04/20 18:01:22;;;;;;;;;;;;;;;25.43;53.05;96757.47;605552;234;66907;-70
2022/04/20 18:03:49;;;;;;;;;;;;;;;25.45;52.65;96757.96;605573;234;63021;-70
2022/04/20 18:06:19;;;;;;;;;;;;;;;25.47;53.11;96763.02;605563;234;66770;-70
2022/04/20 18:08:48;;;;;;;;;;;;;;;25.47;52.32;96761.12;605663;234;46890;-70
2022/04/20 18:11:16;;;;;;;;;;;;;;;25.47;52.70;96769.19;605596;234;65147;-70
2022/04/20 18:13:45;;;;;;;;;;;;;;;25.48;52.93;96769.98;605522;234;65240;-70
2022/04/20 18:16:12;;;;;;;;;;;;;;;25.50;52.47;96758.92;605582;234;65608;-69
2022/04/20 18:18:40;;;;;;;;;;;;;;;25.51;52.84;96773.95;600297;234;65157;-71
2022/04/20 18:21:09;;;;;;;;;;;;;;;25.51;52.88;96779.34;600266;234;64927;-71
2022/04/20 18:23:39;;;;;;;;;;;;;;;25.51;52.37;96782.02;607524;233;66652;-71
2022/04/20 18:26:07;;;;;;;;;;;;;;;25.51;52.93;96779.34;608257;233;63743;-71
2022/04/20 18:28:36;;;;;;;;;;;;;;;25.54;52.55;96787.61;608302;233;66859;-71
2022/04/20 18:31:04;;;;;;;;;;;;;;;25.53;53.32;96785.22;608198;233;66866;-71
2022/04/20 18:33:34;;;;;;;;;;;;;;;25.54;52.51;96779.54;608246;233;63307;-71
2022/04/20 18:36:04;;;;;;;;;;;;;;;25.55;53.00;96791.09;608287;233;64229;-71
2022/04/20 18:38:31;;;;;;;;;;;;;;;25.56;51.99;96789.98;608281;233;66633;-71
2022/04/20 18:40:59;;;;;;;;;;;;;;;25.55;52.75;96799.95;608298;233;62927;-71
2022/04/20 18:43:27;;;;;;;;;;;;;;;25.56;53.23;96800.74;608313;233;66934;-71
2022/04/20 18:45:57;;;;;;;;;;;;;;;25.57;53.37;96802.35;608297;233;43036;-71
2022/04/20 18:48:24;;;;;;;;;;;;;;;25.57;52.94;96800.45;608310;233;65559;-71
2022/04/20 18:50:52;;;;;;;;;;;;;;;25.57;52.58;96810.42;602888;233;67307;-71
2022/04/20 18:58:51;;;;;;;;;;;;;;;25.58;52.48;96826.25;608268;233;67186;-70
2022/04/20 19:01:19;;;;;;;;;;;;;;;25.59;52.40;96824.34;608264;233;67020;-70
2022/04/20 19:03:46;;;;;;;;;;;;;;;25.59;52.05;96835.93;608297;233;65381;-69
2022/04/20 19:06:14;;;;;;;;;;;;;;;25.59;51.91;96835.11;608337;233;67072;-70
2022/04/20 19:08:41;;;;;;;;;;;;;;;25.59;52.21;96837.80;608285;233;64798;-70
2022/04/20 19:11:10;;;;;;;;;;;;;;;25.59;51.93;96837.80;608277;233;65158;-70
2022/04/20 19:13:37;;;;;;;;;;;;;;;25.61;52.42;96843.68;608287;233;67176;-70
2022/04/20 19:16:05;;;;;;;;;;;;;;;25.60;52.62;96842.10;608278;233;66905;-70
2022/04/20 19:18:33;;;;;;;;;;;;;;;25.60;52.63;96844.79;608373;233;63089;-69